createdAt,value
2023-01-19T08:23:35.732Z,47.75
2023-01-19T08:26:02.935Z,45.81
2023-01-19T08:28:29.719Z,45.23
2023-01-19T08:30:56.529Z,44.86
2023-01-19T08:33:23.929Z,44.66
2023-01-19T08:35:52.086Z,44.48
2023-01-19T08:38:19.034Z,44.39
2023-01-19T08:40:45.820Z,44.17
2023-01-19T08:43:14.365Z,44.00
2023-01-19T08:45:46.697Z,43.83
2023-01-19T08:48:14.159Z,43.70
2023-01-19T08:50:41.060Z,43.56
2023-01-19T08:53:07.842Z,43.40
2023-01-19T08:55:35.875Z,43.10
2023-01-19T08:58:04.424Z,42.87
2023-01-19T09:00:33.418Z,42.94
2023-01-19T09:03:03.678Z,42.99
2023-01-19T09:05:39.062Z,42.83
2023-01-19T09:08:11.451Z,42.71
2023-01-19T09:10:39.139Z,42.66
2023-01-19T09:13:08.372Z,42.68
2023-01-19T09:15:37.768Z,42.72
2023-01-19T09:18:06.962Z,42.67
2023-01-19T09:20:34.854Z,42.69
2023-01-19T09:23:01.552Z,42.68
2023-01-19T09:25:28.264Z,42.59
2023-01-19T09:27:56.201Z,42.60
2023-01-19T09:30:22.973Z,42.51
2023-01-19T09:32:49.723Z,42.54
2023-01-19T09:35:16.572Z,42.46
2023-01-19T09:37:47.471Z,42.47
2023-01-19T09:40:15.206Z,42.22
2023-01-19T09:42:46.353Z,42.15
2023-01-19T09:45:35.069Z,42.14
2023-01-19T09:48:03.071Z,42.04
2023-01-19T09:50:36.503Z,41.95
2023-01-19T09:53:07.478Z,41.97
2023-01-19T09:55:34.205Z,41.87
2023-01-19T09:58:01.320Z,41.92
2023-01-19T10:00:28.347Z,41.94
2023-01-19T10:03:16.316Z,41.92
2023-01-19T10:05:55.048Z,41.90
2023-01-19T10:08:46.937Z,41.94
2023-01-19T10:11:51.520Z,41.95
2023-01-19T10:14:28.377Z,41.87
2023-01-19T10:17:23.642Z,41.90
2023-01-19T10:19:52.332Z,41.80
2023-01-19T10:22:24.264Z,41.82
2023-01-19T10:25:00.295Z,41.78
2023-01-19T10:27:29.078Z,41.67
2023-01-19T10:29:55.976Z,41.59
2023-01-19T10:32:25.764Z,41.58
2023-01-19T10:34:53.297Z,41.55
2023-01-19T10:37:32.533Z,41.55
2023-01-19T10:40:21.644Z,41.51
2023-01-19T10:42:48.668Z,41.55
2023-01-19T10:45:20.304Z,41.74
2023-01-19T10:47:47.950Z,41.66
2023-01-19T10:50:32.606Z,41.73
2023-01-19T10:53:01.415Z,41.78
2023-01-19T10:55:29.467Z,41.87
2023-01-19T10:57:56.935Z,41.81
2023-01-19T11:00:38.252Z,41.90
2023-01-19T11:03:21.714Z,41.94
2023-01-19T11:05:48.528Z,41.82
2023-01-19T11:08:23.235Z,41.92
2023-01-19T11:10:55.750Z,41.89
2023-01-19T11:13:22.658Z,41.85
2023-01-19T11:15:54.740Z,41.88
2023-01-19T11:18:28.648Z,41.87
2023-01-19T11:20:57.065Z,42.03
2023-01-19T11:23:32.708Z,42.08
2023-01-19T11:26:01.697Z,42.10
2023-01-19T11:28:31.772Z,42.08
2023-01-19T11:31:17.259Z,42.02
2023-01-19T11:33:48.409Z,42.08
2023-01-19T11:36:17.585Z,42.10
2023-01-19T11:38:45.861Z,42.06
2023-01-19T11:41:17.082Z,42.10
2023-01-19T11:43:49.355Z,42.07
2023-01-19T11:46:16.689Z,42.03
2023-01-19T11:48:48.142Z,42.09
2023-01-19T11:51:16.729Z,42.08
2023-01-19T11:53:43.813Z,41.96
2023-01-19T11:56:11.455Z,41.86
2023-01-19T11:58:40.177Z,42.03
2023-01-19T12:01:17.611Z,42.01
2023-01-19T12:03:47.079Z,42.00
2023-01-19T12:06:20.031Z,42.00
2023-01-19T12:08:57.927Z,42.06
2023-01-19T12:11:35.041Z,42.21
2023-01-19T12:14:02.257Z,42.14
2023-01-19T12:16:30.275Z,42.18
2023-01-19T12:19:16.740Z,42.13
2023-01-19T12:21:44.163Z,42.45
2023-01-19T12:24:22.857Z,42.61
2023-01-19T12:26:53.394Z,42.52
2023-01-19T12:29:22.488Z,42.52
2023-01-19T12:32:16.400Z,42.56
2023-01-19T12:34:44.395Z,42.64
2023-01-19T12:37:36.255Z,42.64
2023-01-19T12:40:22.121Z,42.58
2023-01-19T12:42:57.371Z,42.61
2023-01-19T12:45:25.843Z,42.61
2023-01-19T12:47:53.240Z,42.82
2023-01-19T12:50:23.311Z,42.76
2023-01-19T12:52:51.742Z,42.89
2023-01-19T12:55:27.340Z,43.00
2023-01-19T12:58:07.396Z,43.21
2023-01-19T13:00:34.232Z,43.26
2023-01-19T13:03:16.457Z,43.30
2023-01-19T13:05:43.150Z,43.35
2023-01-19T16:29:34.578Z,46.13
2023-01-19T16:32:01.339Z,44.26
2023-01-19T16:34:28.193Z,44.15
2023-01-19T16:36:54.914Z,44.33
2023-01-19T16:39:21.984Z,44.22
2023-01-19T16:41:48.701Z,43.97
2023-01-19T16:44:15.916Z,44.17
2023-01-19T16:46:44.147Z,44.20
2023-01-19T16:49:15.746Z,44.09
2023-01-19T16:51:42.526Z,44.16
2023-01-19T16:54:17.190Z,44.08
2023-01-19T16:56:43.999Z,43.80
2023-01-19T16:59:15.047Z,43.72
2023-01-19T17:01:42.075Z,43.67
2023-01-19T17:04:09.432Z,43.60
2023-01-19T17:06:36.126Z,43.66
2023-01-19T17:09:02.881Z,43.73
2023-01-19T17:11:31.095Z,43.71
2023-01-19T17:14:00.257Z,43.64
2023-01-19T17:16:28.089Z,43.71
2023-01-19T17:18:56.836Z,43.67
2023-01-19T17:21:24.214Z,43.56
2023-01-19T17:23:52.327Z,43.57
2023-01-19T17:26:19.152Z,43.71
2023-01-19T17:28:46.563Z,43.52
2023-01-19T17:31:15.539Z,43.49
2023-01-19T17:33:47.024Z,43.42
2023-01-19T17:36:15.809Z,43.56
2023-01-19T17:38:42.521Z,43.42
2023-01-19T17:41:16.616Z,43.39
2023-01-19T17:43:43.594Z,43.29
2023-01-19T17:46:10.406Z,43.31
2023-01-19T17:48:37.835Z,43.44
2023-01-19T17:51:05.971Z,43.74
2023-01-19T17:53:33.834Z,43.83
2023-01-19T17:56:04.736Z,43.74
2023-01-19T17:58:31.691Z,43.66
2023-01-19T18:00:58.959Z,43.43
2023-01-19T18:03:25.645Z,43.35
2023-01-19T18:05:57.364Z,43.43
2023-01-19T18:08:24.140Z,43.37
2023-01-19T18:10:57.445Z,43.67
2023-01-19T18:13:24.158Z,43.47
2023-01-19T18:15:51.075Z,43.62
2023-01-19T18:18:18.274Z,43.47
2023-01-19T18:20:44.955Z,43.19
2023-01-19T18:23:11.886Z,43.06
2023-01-19T18:25:39.654Z,43.06
2023-01-19T18:28:07.444Z,42.99
2023-01-19T18:30:34.465Z,42.99
2023-01-19T18:33:01.438Z,43.00
2023-01-19T18:35:29.107Z,43.04
2023-01-19T18:37:57.372Z,42.94
2023-01-19T18:40:24.836Z,42.91
2023-01-19T18:42:52.290Z,42.96
2023-01-19T18:45:19.745Z,42.95
2023-01-19T18:47:46.459Z,42.97
2023-01-19T18:50:14.636Z,42.94
2023-01-19T18:52:41.510Z,42.89
2023-01-19T18:55:08.824Z,42.87
2023-01-19T18:57:35.771Z,42.91
2023-01-19T19:00:03.886Z,42.86
2023-01-19T19:02:31.021Z,42.87
2023-01-19T19:04:58.069Z,42.80
2023-01-19T19:07:25.014Z,42.91
2023-01-19T19:09:51.753Z,43.11
2023-01-19T19:12:18.431Z,43.21
2023-01-19T19:14:45.127Z,43.46
2023-01-19T19:17:12.460Z,43.32
2023-01-19T19:19:39.434Z,43.34
2023-01-19T19:22:07.403Z,43.54
2023-01-19T19:24:34.170Z,43.52
2023-01-19T19:27:01.086Z,43.52
2023-01-19T19:29:28.530Z,43.56
2023-01-19T19:31:56.709Z,43.58
2023-01-19T19:34:24.896Z,43.56
2023-01-19T19:36:51.714Z,43.59
2023-01-19T19:39:18.551Z,43.56
2023-01-19T19:41:45.637Z,43.59
2023-01-19T19:44:15.411Z,43.50
2023-01-19T19:46:42.209Z,43.49
2023-01-19T19:49:09.025Z,43.56
2023-01-19T19:51:35.767Z,43.51
2023-01-19T19:54:02.804Z,43.52
2023-01-19T19:56:30.776Z,43.50
2023-01-19T19:58:59.715Z,43.51
2023-01-19T20:01:33.739Z,43.48
2023-01-19T20:04:09.847Z,43.58
2023-01-19T20:06:39.116Z,43.52
2023-01-19T20:09:06.659Z,43.66
2023-01-19T20:11:33.373Z,43.48
2023-01-19T20:14:00.384Z,43.52
2023-01-19T20:16:27.324Z,43.48
2023-01-19T20:18:54.477Z,43.46
2023-01-19T20:21:23.129Z,43.57
2023-01-19T20:23:51.448Z,43.52
2023-01-19T20:26:20.902Z,43.48
2023-01-19T20:28:47.785Z,43.45
2023-01-19T20:31:20.417Z,43.44
2023-01-19T20:33:48.331Z,43.44
2023-01-19T20:36:15.380Z,43.37
2023-01-19T20:38:44.202Z,43.29
2023-01-19T20:41:11.949Z,43.36
2023-01-19T20:43:39.193Z,43.47
2023-01-19T20:46:06.847Z,43.43
2023-01-19T20:48:33.558Z,43.38
2023-01-19T20:51:08.622Z,43.43
2023-01-19T20:53:35.947Z,43.31
2023-01-19T20:56:08.141Z,42.96
2023-01-19T20:58:34.946Z,42.91
2023-01-19T21:01:12.908Z,42.85
2023-01-19T21:03:40.239Z,42.97
2023-01-19T21:06:07.291Z,43.22
2023-01-19T21:08:34.641Z,43.25
2023-01-19T21:11:01.487Z,43.26
2023-01-19T21:13:28.429Z,43.20
2023-01-19T21:15:55.124Z,43.19
2023-01-19T21:18:22.119Z,43.24
2023-01-19T21:20:49.250Z,43.30
2023-01-19T21:23:16.314Z,43.28
2023-01-19T21:25:53.935Z,43.32
2023-01-19T21:28:21.993Z,43.25
2023-01-19T21:30:49.823Z,43.31
2023-01-19T21:33:17.301Z,43.22
2023-01-19T21:36:10.535Z,43.27
2023-01-19T21:38:37.706Z,43.28
2023-01-19T21:41:06.571Z,43.32
2023-01-19T21:43:35.241Z,43.24
2023-01-19T21:46:13.782Z,43.22
2023-01-19T21:48:41.746Z,43.23
2023-01-19T21:51:08.453Z,43.32
2023-01-19T21:53:35.152Z,43.25
